Time;durP1;ratioP1;P1;durP2;ratioP2;P2;SDS_P1;SDS_P2;PMS_P1;PMS_P2;Temp;Humidity;BMP_temperature;BMP_pressure;BME280_temperature;BME280_humidity;BME280_pressure;Samples;Min_cycle;Max_cycle;Signal;HPM_P1;HPM_P2
2023/08/03 00:01:24;;;;;;;1.33;0.38;;;;;;;17.08;100.00;99003.34;4991832;28;100750;-27
2023/08/03 00:03:50;;;;;;;0.52;0.28;;;;;;;17.08;100.00;98997.88;4992037;28;96561;-28
2023/08/03 00:06:15;;;;;;;0.50;0.15;;;;;;;17.09;100.00;98996.81;4993825;28;96785;-27
2023/08/03 00:08:40;;;;;;;1.40;0.40;;;;;;;17.10;100.00;99012.22;4993377;28;97419;-28
2023/08/03 00:11:06;;;;;;;0.90;0.35;;;;;;;17.13;100.00;99015.44;4993241;28;98731;-27
2023/08/03 00:13:31;;;;;;;1.10;0.30;;;;;;;17.14;100.00;99022.63;4992622;28;96755;-27
2023/08/03 00:15:57;;;;;;;0.63;0.22;;;;;;;17.11;100.00;99014.78;4993413;28;96813;-27
2023/08/03 00:18:22;;;;;;;0.20;0.20;;;;;;;17.10;100.00;99029.47;4993158;28;97891;-27
2023/08/03 00:20:47;;;;;;;0.77;0.20;;;;;;;17.08;100.00;99028.81;4993209;28;97942;-27
2023/08/03 00:23:13;;;;;;;0.60;0.25;;;;;;;17.05;100.00;99011.91;4992928;28;96528;-27
2023/08/03 00:25:38;;;;;;;1.20;0.35;;;;;;;17.15;100.00;99037.16;4993366;28;96727;-27
2023/08/03 00:28:04;;;;;;;1.95;0.43;;;;;;;17.16;100.00;99039.72;4992797;28;97347;-28
2023/08/03 00:30:29;;;;;;;1.30;0.80;;;;;;;17.11;100.00;99039.41;4993279;28;97778;-27
2023/08/03 00:32:54;;;;;;;1.50;0.40;;;;;;;17.16;100.00;99047.03;4993157;28;96508;-27
2023/08/03 00:35:20;;;;;;;1.60;0.60;;;;;;;17.18;100.00;99047.72;4993097;28;96770;-26
2023/08/03 00:37:45;;;;;;;1.25;0.50;;;;;;;17.20;100.00;99054.72;4992236;28;97392;-28
2023/08/03 00:40:11;;;;;;;0.68;0.40;;;;;;;17.18;100.00;99056.81;4992827;28;97931;-28
2023/08/03 00:42:36;;;;;;;0.90;0.40;;;;;;;17.17;100.00;99051.50;4992831;28;96530;-27
2023/08/03 00:45:03;;;;;;;1.33;0.47;;;;;;;17.22;100.00;99054.53;4992535;28;96884;-27
2023/08/03 00:47:28;;;;;;;1.40;0.40;;;;;;;17.19;100.00;99061.22;4990509;28;101089;-27
2023/08/03 00:49:54;;;;;;;0.85;0.50;;;;;;;17.22;100.00;99068.22;4992495;28;100043;-27
2023/08/03 00:52:20;;;;;;;1.85;0.60;;;;;;;17.24;100.00;99066.16;4992533;28;96561;-27
2023/08/03 00:54:45;;;;;;;2.60;0.65;;;;;;;17.17;100.00;99054.25;4993155;28;96786;-27
2023/08/03 00:57:10;;;;;;;1.27;0.55;;;;;;;17.23;100.00;99064.44;4992436;28;97460;-27
2023/08/03 00:59:36;;;;;;;1.52;0.70;;;;;;;17.27;100.00;99074.00;4991782;28;99254;-27
2023/08/03 01:02:02;;;;;;;2.38;0.77;;;;;;;17.27;100.00;99067.69;4992127;28;96415;-26
2023/08/03 01:04:27;;;;;;;1.23;0.75;;;;;;;17.28;100.00;99072.09;4992599;28;96836;-27
2023/08/03 01:06:52;;;;;;;2.63;0.55;;;;;;;17.26;100.00;99076.94;4992382;28;97467;-27
2023/08/03 01:09:18;;;;;;;0.77;0.50;;;;;;;17.29;100.00;99079.31;4992260;28;99184;-27
2023/08/03 01:11:43;;;;;;;1.30;0.60;;;;;;;17.25;100.00;99077.94;4992545;28;96583;-27
2023/08/03 01:14:09;;;;;;;2.60;0.63;;;;;;;17.24;100.00;99082.56;4992005;28;96845;-27
2023/08/03 01:16:36;;;;;;;1.00;0.60;;;;;;;17.27;100.00;99090.41;4990738;28;101043;-27
2023/08/03 01:19:02;;;;;;;1.30;0.52;;;;;;;17.28;100.00;99089.41;4990953;28;100966;-27
2023/08/03 01:21:31;;;;;;;1.60;0.70;;;;;;;17.22;100.00;99084.63;4992420;28;96655;-27
2023/08/03 01:23:57;;;;;;;0.30;0.30;;;;;;;17.26;100.00;99096.09;4990744;28;96864;-27
2023/08/03 01:26:23;;;;;;;1.98;0.40;;;;;;;17.26;100.00;99105.16;4990058;28;100975;-27
2023/08/03 01:28:49;;;;;;;1.42;0.63;;;;;;;17.25;100.00;99103.41;4992233;28;98027;-27
2023/08/03 01:31:15;;;;;;;1.65;0.50;;;;;;;17.28;100.00;99100.34;4992120;28;96550;-27
2023/08/03 01:33:40;;;;;;;0.98;0.73;;;;;;;17.26;100.00;99105.16;4992207;28;96671;-27
2023/08/03 01:36:06;;;;;;;1.10;0.45;;;;;;;17.32;100.00;99109.03;4992105;28;98000;-26
2023/08/03 01:38:31;;;;;;;1.08;0.50;;;;;;;17.28;100.00;99119.50;4992014;28;97601;-27
2023/08/03 01:40:57;;;;;;;1.38;0.57;;;;;;;17.29;100.00;99115.72;4992101;28;96465;-27
2023/08/03 01:43:22;;;;;;;1.58;0.52;;;;;;;17.25;100.00;99113.53;4990690;28;96946;-27
2023/08/03 01:45:47;;;;;;;1.50;0.57;;;;;;;17.23;100.00;99110.97;4991914;28;98862;-27
2023/08/03 01:48:13;;;;;;;2.15;0.70;;;;;;;17.20;100.00;99103.13;4992162;28;97178;-27
2023/08/03 01:50:38;;;;;;;1.48;0.50;;;;;;;17.20;100.00;99106.69;4991400;28;96510;-27
2023/08/03 01:53:04;;;;;;;2.40;0.70;;;;;;;17.16;100.00;99109.97;4992089;28;96759;-27
2023/08/03 01:55:29;;;;;;;1.65;0.65;;;;;;;17.07;100.00;99113.81;4991899;28;97715;-27
2023/08/03 01:57:54;;;;;;;1.75;0.35;;;;;;;17.09;100.00;99122.66;4991445;28;97809;-27
2023/08/03 02:00:20;;;;;;;2.08;0.60;;;;;;;17.14;100.00;99121.13;4994414;28;96824;-27
2023/08/03 02:02:45;;;;;;;0.68;0.40;;;;;;;17.12;100.00;99112.22;4995464;28;96777;-27
2023/08/03 02:05:10;;;;;;;1.58;0.43;;;;;;;17.14;100.00;99114.81;4995283;28;97304;-27
2023/08/03 02:07:53;;;;;;;1.40;0.60;;;;;;;17.13;100.00;99121.28;4995234;28;99133;-27
2023/08/03 02:10:18;;;;;;;0.95;0.43;;;;;;;17.16;100.00;99123.66;4994909;28;96600;-28
2023/08/03 02:12:44;;;;;;;1.27;0.28;;;;;;;17.05;100.00;99116.72;4995304;28;96819;-27
2023/08/03 02:15:10;;;;;;;1.23;0.40;;;;;;;17.06;100.00;99118.41;4994612;28;97946;-27
2023/08/03 02:17:35;;;;;;;0.82;0.32;;;;;;;17.05;100.00;99118.59;4994752;28;99369;-27
2023/08/03 02:20:00;;;;;;;1.15;0.60;;;;;;;17.05;100.00;99116.72;4995224;28;96598;-27
2023/08/03 02:22:26;;;;;;;0.43;0.32;;;;;;;16.98;100.00;99108.38;4995224;28;96880;-27
2023/08/03 02:24:51;;;;;;;1.05;0.35;;;;;;;17.01;100.00;99114.53;4994821;28;97456;-27
2023/08/03 02:27:17;;;;;;;0.50;0.38;;;;;;;17.02;100.00;99114.34;4994740;28;98031;-27
2023/08/03 02:29:42;;;;;;;0.85;0.40;;;;;;;16.95;100.00;99108.72;4995479;28;96672;-28
2023/08/03 02:32:08;;;;;;;0.57;0.28;;;;;;;16.97;100.00;99114.88;4995446;28;96753;-27
2023/08/03 02:34:33;;;;;;;2.08;0.20;;;;;;;16.90;100.00;99116.63;4994893;28;98129;-27
2023/08/03 02:36:58;;;;;;;1.45;0.40;;;;;;;16.91;100.00;99115.59;4994724;28;97344;-26
2023/08/03 02:39:24;;;;;;;0.35;0.30;;;;;;;16.94;100.00;99114.38;4994193;28;96615;-27
2023/08/03 02:41:49;;;;;;;0.22;0.15;;;;;;;16.96;100.00;99123.25;4994796;28;96741;-27
2023/08/03 02:44:14;;;;;;;2.53;0.47;;;;;;;16.94;100.00;99117.09;4992533;28;98142;-27
2023/08/03 02:46:40;;;;;;;0.50;0.30;;;;;;;16.95;100.00;99132.50;4994660;28;97458;-27
2023/08/03 02:49:06;;;;;;;0.90;0.30;;;;;;;16.97;100.00;99131.28;4993308;28;96699;-27
2023/08/03 02:51:31;;;;;;;0.77;0.28;;;;;;;16.94;100.00;99133.53;4994776;28;96768;-27
2023/08/03 02:53:56;;;;;;;0.45;0.22;;;;;;;16.96;100.00;99142.41;4994232;28;97907;-28
2023/08/03 02:56:22;;;;;;;4.30;0.55;;;;;;;16.98;100.00;99149.41;4995039;28;97410;-27
2023/08/03 02:58:47;;;;;;;0.35;0.22;;;;;;;16.94;100.00;99137.09;4993974;28;96804;-27
2023/08/03 03:01:13;;;;;;;0.52;0.30;;;;;;;17.03;100.00;99158.97;4994664;28;96823;-27
2023/08/03 03:03:38;;;;;;;0.50;0.40;;;;;;;17.03;100.00;99164.44;4993728;28;99688;-27
2023/08/03 03:06:04;;;;;;;0.63;0.38;;;;;;;17.04;100.00;99158.78;4994196;28;99363;-26
2023/08/03 03:08:29;;;;;;;0.63;0.30;;;;;;;17.05;100.00;99165.97;4994239;28;96773;-27
2023/08/03 03:10:54;;;;;;;0.88;0.17;;;;;;;17.09;100.00;99172.78;4993687;28;96830;-27
2023/08/03 03:13:20;;;;;;;1.30;0.60;;;;;;;17.02;100.00;99176.38;4994060;28;98895;-27
2023/08/03 03:15:45;;;;;;;0.30;0.30;;;;;;;16.98;100.00;99178.66;4994316;28;97825;-27
2023/08/03 03:18:10;;;;;;;1.70;0.65;;;;;;;16.98;100.00;99190.44;4993953;28;96661;-27
2023/08/03 03:20:36;;;;;;;1.70;0.35;;;;;;;17.00;100.00;99186.69;4995034;28;96715;-27
2023/08/03 03:23:01;;;;;;;1.25;0.55;;;;;;;17.00;100.00;99194.88;4993743;28;98051;-27
2023/08/03 03:25:26;;;;;;;0.88;0.43;;;;;;;16.96;100.00;99200.69;4994346;28;97181;-27
2023/08/03 03:27:52;;;;;;;0.63;0.25;;;;;;;16.96;100.00;99203.44;4993631;28;96427;-27
2023/08/03 03:30:17;;;;;;;2.55;0.65;;;;;;;16.97;100.00;99202.41;4993780;28;96901;-28
2023/08/03 03:32:44;;;;;;;1.95;0.43;;;;;;;16.92;100.00;99207.56;4993803;28;97415;-27
2023/08/03 03:35:09;;;;;;;2.97;0.45;;;;;;;16.93;100.00;99212.00;4992255;28;100877;-27
2023/08/03 03:37:35;;;;;;;2.08;0.55;;;;;;;16.89;100.00;99215.25;4993652;28;96585;-27
2023/08/03 03:40:00;;;;;;;2.42;0.60;;;;;;;16.89;100.00;99226.19;4993946;28;96850;-27
2023/08/03 03:42:25;;;;;;;1.17;0.28;;;;;;;16.89;100.00;99226.19;4993864;28;97472;-27
2023/08/03 03:44:51;;;;;;;0.90;0.30;;;;;;;16.82;100.00;99214.25;4993230;28;99656;-27
2023/08/03 03:47:16;;;;;;;0.82;0.25;;;;;;;16.82;100.00;99216.97;4993898;28;96672;-27
2023/08/03 03:49:41;;;;;;;0.40;0.20;;;;;;;16.84;100.00;99234.06;4993803;28;96698;-27
2023/08/03 03:52:07;;;;;;;0.55;0.20;;;;;;;16.77;100.00;99222.94;4993164;28;97500;-27
2023/08/03 03:54:32;;;;;;;1.75;0.20;;;;;;;16.82;100.00;99236.97;4993304;28;97770;-27
2023/08/03 03:56:58;;;;;;;0.93;0.45;;;;;;;16.79;100.00;99237.34;4993609;28;96597;-27
2023/08/03 03:59:23;;;;;;;2.42;0.43;;;;;;;16.80;100.00;99252.69;4993136;28;96976;-26
2023/08/03 04:01:49;;;;;;;1.30;0.40;;;;;;;16.79;100.00;99245.53;4993395;28;97894;-27
2023/08/03 04:04:14;;;;;;;0.73;0.28;;;;;;;16.84;100.00;99251.31;4993487;28;97800;-27
2023/08/03 04:06:39;;;;;;;0.20;0.20;;;;;;;16.84;100.00;99247.75;4993340;28;96624;-27
2023/08/03 04:09:05;;;;;;;0.43;0.22;;;;;;;16.82;100.00;99264.31;4993457;28;96927;-27
2023/08/03 04:11:30;;;;;;;1.90;0.20;;;;;;;16.83;100.00;99263.31;4993401;28;97428;-27
2023/08/03 04:13:55;;;;;;;0.98;0.35;;;;;;;16.88;100.00;99273.72;4993319;28;98279;-27
2023/08/03 04:16:21;;;;;;;2.38;0.30;;;;;;;16.92;100.00;99273.22;4992865;28;96551;-28
2023/08/03 04:18:46;;;;;;;0.77;0.25;;;;;;;16.86;100.00;99271.16;4992969;28;96881;-28
2023/08/03 04:21:11;;;;;;;4.55;0.77;;;;;;;16.87;100.00;99286.53;4992659;28;97925;-27
2023/08/03 04:23:37;;;;;;;1.98;0.55;;;;;;;16.90;100.00;99286.19;4992623;28;97590;-27
2023/08/03 04:26:02;;;;;;;0.20;0.20;;;;;;;16.87;100.00;99289.25;4992962;28;96697;-27
2023/08/03 04:28:28;;;;;;;4.28;0.65;;;;;;;16.87;100.00;99292.00;4991682;28;96876;-27
2023/08/03 04:30:53;;;;;;;6.20;0.70;;;;;;;16.89;100.00;99303.63;4993101;28;98385;-28
2023/08/03 04:33:18;;;;;;;3.13;0.82;;;;;;;16.85;100.00;99307.75;4993250;28;97606;-27
2023/08/03 04:35:44;;;;;;;3.00;0.60;;;;;;;16.86;100.00;99298.50;4993062;28;96772;-28
2023/08/03 04:38:09;;;;;;;1.58;0.70;;;;;;;16.85;100.00;99312.34;4992408;28;96840;-27
2023/08/03 04:40:35;;;;;;;1.92;0.57;;;;;;;16.79;100.00;99302.97;4992506;28;97913;-28
2023/08/03 04:43:01;;;;;;;2.28;1.02;;;;;;;16.81;100.00;99317.31;4992779;28;97893;-27
2023/08/03 04:45:26;;;;;;;3.60;0.80;;;;;;;16.80;100.00;99325.69;4992630;28;96692;-27
2023/08/03 04:47:52;;;;;;;4.68;0.98;;;;;;;16.77;100.00;99332.31;4993181;28;96802;-27
2023/08/03 04:50:19;;;;;;;0.80;0.40;;;;;;;16.75;100.00;99332.47;4992879;28;97923;-27
2023/08/03 04:52:44;;;;;;;1.83;0.60;;;;;;;16.75;100.00;99332.47;4992368;28;97805;-27
2023/08/03 04:55:10;;;;;;;2.15;0.55;;;;;;;16.70;100.00;99328.56;4992881;28;96701;-29
2023/08/03 04:57:35;;;;;;;0.60;0.40;;;;;;;16.71;100.00;99333.88;4992684;28;96830;-27
2023/08/03 05:00:00;;;;;;;2.78;0.88;;;;;;;16.69;100.00;99354.22;4992480;28;98129;-29
2023/08/03 05:02:26;;;;;;;2.03;0.60;;;;;;;16.65;100.00;99347.38;4992502;28;97774;-27
2023/08/03 05:04:51;;;;;;;2.15;0.63;;;;;;;16.69;100.00;99356.94;4992261;28;96801;-26
2023/08/03 05:07:16;;;;;;;1.90;0.65;;;;;;;16.66;100.00;99340.88;4992427;28;96810;-27
2023/08/03 05:09:42;;;;;;;1.10;0.50;;;;;;;16.67;100.00;99354.38;4992040;28;99337;-27
2023/08/03 05:12:07;;;;;;;2.78;0.70;;;;;;;16.73;100.00;99352.81;4992457;28;97399;-26
2023/08/03 05:14:33;;;;;;;2.80;0.52;;;;;;;16.73;100.00;99361.03;4992374;28;96645;-27
2023/08/03 05:16:58;;;;;;;5.10;0.93;;;;;;;16.68;100.00;99357.97;4992496;28;96789;-28
2023/08/03 05:19:23;;;;;;;4.22;0.65;;;;;;;16.69;100.00;99354.22;4992315;28;97437;-28
2023/08/03 05:21:49;;;;;;;3.60;0.60;;;;;;;16.71;100.00;99361.22;4992518;28;97760;-27
2023/08/03 05:24:14;;;;;;;2.97;0.60;;;;;;;16.68;100.00;99352.50;4992418;28;96499;-27
2023/08/03 05:26:40;;;;;;;1.35;0.65;;;;;;;16.70;100.00;99378.63;4992172;28;96838;-30
2023/08/03 05:29:05;;;;;;;1.52;0.40;;;;;;;16.63;100.00;99366.66;4991639;28;97911;-27
2023/08/03 05:31:31;;;;;;;6.00;0.85;;;;;;;16.68;100.00;99377.09;4991842;28;99086;-27
2023/08/03 05:33:56;;;;;;;2.83;0.55;;;;;;;16.63;100.00;99379.50;4992218;28;96606;-28
2023/08/03 05:36:23;;;;;;;1.02;0.30;;;;;;;16.63;100.00;99379.50;4992075;28;96718;-28
2023/08/03 05:38:52;;;;;;;5.50;0.57;;;;;;;16.67;100.00;99372.66;4991884;28;97402;-27
2023/08/03 05:41:22;;;;;;;2.05;0.43;;;;;;;16.55;100.00;99364.78;4991915;28;97875;-27
2023/08/03 05:43:47;;;;;;;1.73;0.50;;;;;;;16.66;100.00;99380.03;4989992;28;96880;-27
2023/08/03 05:46:14;;;;;;;2.60;0.50;;;;;;;16.62;100.00;99389.56;4992279;28;96805;-28
2023/08/03 05:48:40;;;;;;;3.33;0.68;;;;;;;16.59;100.00;99378.09;4990390;28;101324;-27
2023/08/03 05:51:08;;;;;;;3.83;0.75;;;;;;;16.62;100.00;99392.31;4990140;28;100991;-27
2023/08/03 05:53:33;;;;;;;2.28;0.52;;;;;;;16.63;100.00;99396.75;4989865;28;97046;-27
2023/08/03 05:55:59;;;;;;;1.10;0.50;;;;;;;16.63;100.00;99406.84;4991847;28;96858;-27
2023/08/03 05:58:24;;;;;;;1.92;0.35;;;;;;;16.67;100.00;99402.75;4991318;28;99181;-27
2023/08/03 06:00:50;;;;;;;3.80;0.43;;;;;;;16.66;100.00;99403.75;4991446;28;97396;-27
2023/08/03 06:03:18;;;;;;;1.67;0.38;;;;;;;16.70;100.00;99411.44;4991971;28;96687;-28
2023/08/03 06:05:48;;;;;;;1.13;0.55;;;;;;;16.67;100.00;99397.28;4990336;28;96931;-28
2023/08/03 06:08:19;;;;;;;2.90;0.52;;;;;;;16.70;100.00;99408.72;4990214;28;101318;-27
2023/08/03 06:10:50;;;;;;;2.25;0.60;;;;;;;16.68;100.00;99409.91;4990468;28;101356;-26
2023/08/03 06:13:18;;;;;;;1.90;0.55;;;;;;;16.70;100.00;99410.59;4990300;28;97259;-28
2023/08/03 06:15:45;;;;;;;1.73;0.57;;;;;;;16.73;100.00;99416.59;4990225;28;96876;-27
2023/08/03 06:18:15;;;;;;;2.92;0.60;;;;;;;16.79;100.00;99427.91;4989279;28;100875;-27
2023/08/03 06:20:44;;;;;;;2.45;0.57;;;;;;;16.81;100.00;99436.81;4989892;28;101212;-27
2023/08/03 06:23:15;;;;;;;0.65;0.28;;;;;;;16.81;100.00;99431.34;4990144;28;96668;-27
2023/08/03 06:25:41;;;;;;;;;;;;;;;16.86;100.00;99440.72;4990548;28;96942;-28
2023/08/03 06:28:10;;;;;;;0.70;0.30;;;;;;;16.84;100.00;99447.41;4991487;28;97552;-27
2023/08/03 06:30:36;;;;;;;1.75;0.73;;;;;;;16.89;100.00;99445.84;4989806;28;101399;-27
2023/08/03 06:33:02;;;;;;;2.80;1.10;;;;;;;16.88;100.00;99435.94;4989982;28;96635;-29
2023/08/03 06:35:39;;;;;;;5.22;0.50;;;;;;;16.89;100.00;99448.59;4991795;28;96854;-27
2023/08/03 06:38:07;;;;;;;1.23;0.65;;;;;;;16.94;100.00;99462.59;4989684;28;100978;-28
2023/08/03 06:40:33;;;;;;;1.55;0.88;;;;;;;17.02;100.00;99477.31;4989838;28;101390;-27
2023/08/03 06:43:01;;;;;;;2.30;0.55;;;;;;;17.01;100.00;99475.63;4990683;28;96538;-27
2023/08/03 06:45:26;;;;;;;1.35;0.50;;;;;;;17.04;100.00;99486.22;4990945;28;96926;-27
2023/08/03 06:47:52;;;;;;;2.72;0.85;;;;;;;17.04;100.00;99486.22;4994578;28;98046;-27
2023/08/03 06:50:18;;;;;;;2.45;0.60;;;;;;;17.08;100.00;99493.06;4993168;28;98869;-27
2023/08/03 06:52:43;;;;;;;6.65;0.85;;;;;;;17.06;100.00;99501.44;4993151;28;96687;-27
2023/08/03 06:55:09;;;;;;;0.95;0.47;;;;;;;17.11;100.00;99498.19;4994378;28;96856;-27
2023/08/03 06:57:34;;;;;;;1.80;0.70;;;;;;;17.18;100.00;99521.09;4993967;28;99303;-28
2023/08/03 06:59:59;;;;;;;3.97;0.80;;;;;;;17.22;100.00;99530.69;4994662;28;97819;-27
2023/08/03 07:02:25;;;;;;;2.58;0.93;;;;;;;17.21;100.00;99515.31;4994485;28;96531;-28
2023/08/03 07:04:50;;;;;;;2.15;0.50;;;;;;;17.26;100.00;99534.81;4993011;28;96942;-27
2023/08/03 07:07:16;;;;;;;4.03;0.60;;;;;;;17.29;100.00;99545.41;4993851;28;97876;-27
2023/08/03 07:09:41;;;;;;;1.98;0.75;;;;;;;17.38;100.00;99551.75;4994180;28;97733;-27
2023/08/03 07:12:10;;;;;;;1.70;0.50;;;;;;;17.40;100.00;99546.97;4994344;28;96733;-28
2023/08/03 07:14:35;;;;;;;5.45;0.70;;;;;;;17.34;100.00;99564.91;4994005;28;96850;-27
2023/08/03 07:17:01;;;;;;;1.58;0.55;;;;;;;17.33;100.00;99565.09;4994047;28;97942;-27
2023/08/03 07:19:26;;;;;;;0.95;0.60;;;;;;;17.38;100.00;99579.97;4994045;28;97328;-27
2023/08/03 07:21:51;;;;;;;2.72;0.60;;;;;;;17.44;100.00;99583.91;4994308;28;96595;-27
2023/08/03 07:24:17;;;;;;;1.38;0.50;;;;;;;17.50;100.00;99594.19;4994551;28;96775;-28
2023/08/03 07:26:42;;;;;;;4.75;0.65;;;;;;;17.51;100.00;99600.53;4994297;28;97338;-28
2023/08/03 07:29:08;;;;;;;1.63;0.63;;;;;;;17.50;100.00;99598.81;4993818;28;98800;-27
2023/08/03 07:31:33;;;;;;;1.25;0.73;;;;;;;17.61;100.00;99620.38;4993588;28;96632;-27
2023/08/03 07:33:58;;;;;;;1.25;0.40;;;;;;;17.62;100.00;99624.84;4993665;28;96846;-27
2023/08/03 07:36:24;;;;;;;1.27;0.47;;;;;;;17.66;100.00;99628.94;4993791;28;97989;-27
2023/08/03 07:38:49;;;;;;;1.15;0.32;;;;;;;17.69;100.00;99628.59;4993662;28;98308;-27
2023/08/03 07:41:14;;;;;;;1.80;0.40;;;;;;;17.69;100.00;99631.34;4994113;28;97880;-27
2023/08/03 07:43:40;;;;;;;5.65;0.45;;;;;;;17.78;100.00;99651.34;4993302;28;96805;-27
2023/08/03 07:46:05;;;;;;;1.02;0.38;;;;;;;17.79;100.00;99651.19;4993016;28;99305;-28
2023/08/03 07:48:30;;;;;;;1.52;0.70;;;;;;;17.77;100.00;99655.13;4994028;28;97840;-27
2023/08/03 07:50:56;;;;;;;0.80;0.40;;;;;;;17.81;100.00;99660.13;4993946;28;96700;-27
2023/08/03 07:53:21;;;;;;;3.42;0.50;;;;;;;17.86;100.00;99665.09;4993962;28;96804;-27
2023/08/03 07:55:46;;;;;;;0.50;0.40;;;;;;;17.89;100.00;99670.25;4992898;28;97446;-27
2023/08/03 07:58:12;;;;;;;0.98;0.47;;;;;;;17.86;100.00;99675.22;4992239;28;97176;-27
2023/08/03 08:00:37;;;;;;;2.13;0.60;;;;;;;17.94;100.00;99695.25;4992096;28;96848;-28
2023/08/03 08:03:04;;;;;;;2.42;0.47;;;;;;;17.98;100.00;99701.25;4993924;28;96889;-26
2023/08/03 08:05:29;;;;;;;0.98;0.52;;;;;;;17.94;100.00;99703.47;4991956;28;101015;-26
2023/08/03 08:07:55;;;;;;;2.17;0.60;;;;;;;17.91;99.23;99703.81;4991775;28;100959;-27
2023/08/03 08:10:20;;;;;;;1.70;0.45;;;;;;;17.98;99.47;99717.69;4993623;28;96599;-27
2023/08/03 08:12:46;;;;;;;1.23;0.50;;;;;;;18.03;99.41;99726.25;4993572;28;96777;-28
2023/08/03 08:15:11;;;;;;;1.40;0.55;;;;;;;18.15;99.03;99737.72;4993324;28;97926;-27
2023/08/03 08:17:36;;;;;;;2.72;0.68;;;;;;;18.25;99.12;99738.41;4993239;28;98048;-28
2023/08/03 08:20:02;;;;;;;0.85;0.50;;;;;;;18.23;98.37;99735.88;4991410;28;96721;-27
2023/08/03 08:22:28;;;;;;;1.08;0.50;;;;;;;18.19;98.42;99730.91;4993009;28;96968;-27
2023/08/03 08:24:53;;;;;;;1.10;0.57;;;;;;;18.24;98.45;99758.63;4992837;28;99632;-27
2023/08/03 08:27:18;;;;;;;0.70;0.38;;;;;;;18.17;99.14;99749.38;4992769;28;97049;-27
2023/08/03 08:29:45;;;;;;;4.88;1.20;;;;;;;18.20;98.64;99757.25;4993371;28;96528;-27
2023/08/03 08:32:11;;;;;;;1.33;0.60;;;;;;;18.29;98.69;99772.69;4992980;28;96801;-27
2023/08/03 08:34:36;;;;;;;5.43;0.88;;;;;;;18.47;98.79;99764.28;4993016;28;97460;-27
2023/08/03 08:37:01;;;;;;;2.40;0.70;;;;;;;18.77;97.61;99779.19;4993248;28;97903;-27
2023/08/03 08:39:29;;;;;;;4.15;0.60;;;;;;;18.98;96.62;99772.31;4993065;28;96672;-27
2023/08/03 08:41:54;;;;;;;0.90;0.38;;;;;;;19.24;95.68;99761.06;4992674;28;96731;-28
2023/08/03 08:44:20;;;;;;;0.88;0.60;;;;;;;19.66;94.10;99768.06;4992020;28;97061;-27
2023/08/03 08:46:45;;;;;;;1.48;0.57;;;;;;;19.53;93.21;99769.50;4992785;28;97782;-27
2023/08/03 08:49:11;;;;;;;5.72;1.00;;;;;;;19.41;93.32;99772.84;4992833;28;96491;-27
2023/08/03 08:51:40;;;;;;;4.40;0.77;;;;;;;19.23;94.11;99778.56;4991359;28;96790;-27
2023/08/03 08:54:05;;;;;;;2.97;0.88;;;;;;;19.10;94.81;99787.38;4991265;28;101352;-27
2023/08/03 08:56:31;;;;;;;1.30;0.52;;;;;;;18.96;96.72;99818.28;4991994;28;99316;-28
2023/08/03 08:58:56;;;;;;;1.73;0.55;;;;;;;18.84;96.80;99826.84;4992361;28;96780;-27
2023/08/03 09:01:21;;;;;;;2.42;0.98;;;;;;;18.74;97.15;99822.56;4992922;28;96819;-28
2023/08/03 09:03:52;;;;;;;1.65;0.60;;;;;;;18.79;97.57;99839.41;4992599;28;97570;-27
2023/08/03 09:06:21;;;;;;;1.17;0.57;;;;;;;18.78;97.71;99837.66;4992673;28;97853;-27
2023/08/03 09:08:55;;;;;;;5.50;1.25;;;;;;;18.78;97.67;99845.91;4990144;28;97251;-30
2023/08/03 09:11:38;;;;;;;1.17;0.70;;;;;;;18.82;99.00;99845.38;4992292;28;96584;-27
2023/08/03 09:14:06;;;;;;;3.72;1.05;;;;;;;18.87;97.79;99850.34;4990861;28;101183;-27
2023/08/03 09:16:31;;;;;;;2.97;0.77;;;;;;;18.94;97.66;99859.59;4990793;28;101002;-27
2023/08/03 09:18:57;;;;;;;7.00;1.00;;;;;;;19.43;98.11;99858.66;4992262;28;96513;-26
2023/08/03 09:21:22;;;;;;;3.28;1.00;;;;;;;19.83;96.28;99854.94;4992392;28;96777;-27
2023/08/03 09:23:48;;;;;;;2.15;0.68;;;;;;;19.97;94.95;99861.53;4992212;28;96765;-27
2023/08/03 09:26:14;;;;;;;6.10;1.00;;;;;;;20.06;94.54;99854.97;4992493;28;97907;-28
2023/08/03 09:28:41;;;;;;;2.92;0.77;;;;;;;20.15;94.20;99858.53;4990877;28;96711;-27
2023/08/03 09:31:07;;;;;;;0.95;0.52;;;;;;;20.32;93.42;99871.16;4990828;28;96715;-27
2023/08/03 09:33:34;;;;;;;1.70;0.60;;;;;;;20.53;93.33;99861.38;4990098;28;101522;-27
2023/08/03 09:36:14;;;;;;;2.20;0.90;;;;;;;20.64;92.59;99868.38;4990316;28;100725;-26
2023/08/03 09:38:40;;;;;;;1.80;1.10;;;;;;;20.69;92.44;99874.19;4990644;28;96642;-27
2023/08/03 09:41:05;;;;;;;3.45;0.65;;;;;;;20.86;90.57;99872.16;4990630;28;96913;-27
2023/08/03 09:43:31;;;;;;;2.83;0.77;;;;;;;20.99;90.47;99878.72;4991376;28;99492;-27
2023/08/03 09:45:57;;;;;;;1.88;0.73;;;;;;;20.84;90.20;99891.63;4991860;28;98618;-27
2023/08/03 09:48:23;;;;;;;2.78;0.57;;;;;;;20.51;91.01;99890.97;4990451;28;96520;-27
2023/08/03 09:50:54;;;;;;;4.13;0.68;;;;;;;20.21;91.08;99918.31;4991982;28;96790;-26
2023/08/03 09:53:21;;;;;;;1.33;0.70;;;;;;;;;;4990401;28;101094;-27
2023/08/03 09:55:53;;;;;;;1.40;0.47;;;;;;;19.75;93.41;99922.81;4991964;28;97801;-27
2023/08/03 09:58:23;;;;;;;2.15;0.65;;;;;;;19.46;92.79;99922.34;4991208;28;96617;-27
2023/08/03 10:00:51;;;;;;;3.70;0.55;;;;;;;19.46;94.30;99944.31;4990324;28;96860;-26
2023/08/03 10:03:21;;;;;;;0.98;0.43;;;;;;;19.39;94.15;99947.94;4990079;28;100791;-27
2023/08/03 10:06:13;;;;;;;0.60;0.30;;;;;;;19.33;93.43;99960.47;4990313;28;100843;-27
2023/08/03 10:08:47;;;;;;;1.55;0.32;;;;;;;19.17;93.14;99963.22;4990548;28;96589;-27
2023/08/03 10:11:13;;;;;;;1.38;0.35;;;;;;;19.23;93.58;99976.25;4992013;28;96603;-26
2023/08/03 10:13:48;;;;;;;1.83;0.40;;;;;;;19.22;93.72;99985.53;4990110;28;100938;-26
2023/08/03 10:16:15;;;;;;;0.65;0.40;;;;;;;19.11;93.44;99992.22;4992029;28;97433;-28
2023/08/03 10:18:42;;;;;;;0.75;0.17;;;;;;;19.08;93.21;100006.28;4990163;28;96723;-26
2023/08/03 10:21:08;;;;;;;1.05;0.50;;;;;;;18.91;93.28;100005.41;4992642;28;96807;-27
2023/08/03 10:23:38;;;;;;;1.38;0.35;;;;;;;18.83;92.62;100013.63;4993075;28;101217;-27
2023/08/03 10:26:03;;;;;;;1.42;0.40;;;;;;;18.78;92.69;100035.22;4994439;28;99096;-27
2023/08/03 10:28:38;;;;;;;2.45;0.40;;;;;;;18.72;93.84;100046.84;4994886;28;97139;-27
2023/08/03 10:31:04;;;;;;;1.75;0.70;;;;;;;18.62;94.74;100050.59;4995072;28;96848;-27
2023/08/03 10:33:51;;;;;;;2.35;0.50;;;;;;;18.63;95.28;100071.50;4993365;28;101239;-27
2023/08/03 10:36:33;;;;;;;0.98;0.40;;;;;;;18.55;95.44;100079.69;4993149;28;101390;-27
2023/08/03 10:39:09;;;;;;;0.93;0.40;;;;;;;18.43;94.92;100075.53;4993460;28;96748;-27
2023/08/03 10:41:40;;;;;;;3.03;0.60;;;;;;;18.31;95.44;100098.78;4993668;28;96733;-26
2023/08/03 10:44:05;;;;;;;0.47;0.32;;;;;;;18.22;97.51;100106.09;4992830;28;100778;-27
2023/08/03 10:46:35;;;;;;;0.90;0.30;;;;;;;18.10;97.92;100115.63;4994605;28;96837;-27
2023/08/03 10:49:25;;;;;;;0.13;0.13;;;;;;;18.07;98.40;100118.66;4994184;28;96716;-27
2023/08/03 10:52:17;;;;;;;0.35;0.17;;;;;;;18.01;98.44;100129.25;4993242;28;96836;-28
2023/08/03 10:54:43;;;;;;;0.15;0.15;;;;;;;17.95;98.51;100129.91;4994561;28;98523;-27
2023/08/03 10:57:14;;;;;;;2.22;0.70;;;;;;;17.89;98.85;100135.16;4993105;28;100965;-27
2023/08/03 10:59:41;;;;;;;2.60;0.55;;;;;;;17.88;98.99;100150.75;4976192;28;96862;-26
2023/08/03 11:02:11;;;;;;;1.83;0.45;;;;;;;17.80;99.34;100164.34;4992976;28;96809;-27
2023/08/03 11:04:37;;;;;;;0.22;0.20;;;;;;;17.69;100.00;100156.38;4994019;28;99409;-27
2023/08/03 11:07:03;;;;;;;1.15;0.38;;;;;;;17.69;100.00;100175.56;4993275;28;99170;-27
2023/08/03 11:09:29;;;;;;;0.50;0.30;;;;;;;17.66;99.79;100171.22;4994207;28;96688;-27
2023/08/03 11:11:57;;;;;;;3.08;0.63;;;;;;;17.64;100.00;100173.28;4992679;28;96923;-27
2023/08/03 11:14:23;;;;;;;2.60;0.30;;;;;;;17.72;99.85;100186.19;4992269;28;101140;-27
2023/08/03 11:16:48;;;;;;;4.13;0.60;;;;;;;17.73;99.95;100188.78;4994533;28;97238;-27
2023/08/03 11:19:13;;;;;;;2.20;0.55;;;;;;;17.77;100.00;100192.91;4994340;28;96636;-27
2023/08/03 11:21:41;;;;;;;1.98;0.50;;;;;;;17.83;99.83;100197.81;4994036;28;96844;-27
2023/08/03 11:24:06;;;;;;;0.98;0.60;;;;;;;17.80;100.00;100199.94;4992420;28;101159;-28